Helmuth, New York
Current Conditions -  °F | °C
As of 5:53 AM on Saturday 25 Oct 2014 (Local Time) from KDKK Reporting Station
Overcast Overcast  
Wind Chill: 52°   Ceiling: 4300
Heat Index: 52°   Visibility: 10mi
Dew Point: 46°   Wind: 6mph
Humidity: 80%   Direction: 210°SSW
Pressure: 29.88"   Gusts: NA
Location:  42.4964°N, 78.8604°W
Report Text: KDKK 250953Z AUTO 21005KT 10SM OVC043 11/08 A2988 RMK AO2 SLP120 T01110078
Loading
Personal Weather Stations






























Interactive Weather Map
Tropical Storm Tracking
New forecast layout! Learn more

10-Day Weather Forecast

Advertisements
Track Severe Weather on mobile